Delair, New Jersey
Current Conditions -  °F | °C
As of 3:54 PM on Saturday 22 Nov 2014 (Local Time) from KPNE Reporting Station
Overcast Overcast  
Wind Chill: 39°   Ceiling: 6000
Heat Index: 45°   Visibility: 10mi
Dew Point: 15°   Wind: 13mph
Humidity: 30%   Direction: 230°SW
Pressure: 30.32"   Gusts: 22mph
Location:  39.975°N, 75.0476°W
Report Text: KPNE 222054Z AUTO 23011G19KT 10SM BKN060 OVC075 07/M09 A3032 RMK AO2 RAB32E41 SLP266 P0000 60000 T00721094 56022 TSNO
Loading
Personal Weather Stations






























Interactive Weather Map New forecast layout! Learn more

10-Day Weather Forecast

Advertisements
Track Severe Weather on mobile